createdAt,value
2023-05-18T00:00:31.676Z,5.88
2023-05-18T00:02:58.160Z,5.80
2023-05-18T00:05:24.751Z,6.22
2023-05-18T00:07:51.134Z,5.72
2023-05-18T00:10:17.574Z,6.95
2023-05-18T00:12:43.965Z,6.75
2023-05-18T00:15:10.505Z,6.05
2023-05-18T00:17:37.083Z,7.10
2023-05-18T00:20:03.734Z,7.13
2023-05-18T00:22:30.099Z,6.63
2023-05-18T00:24:56.447Z,7.30
2023-05-18T00:27:22.778Z,6.57
2023-05-18T00:29:49.156Z,8.50
2023-05-18T00:32:15.512Z,7.70
2023-05-18T00:34:41.892Z,7.63
2023-05-18T00:37:08.262Z,7.38
2023-05-18T00:39:34.649Z,7.28
2023-05-18T00:42:01.039Z,8.05
2023-05-18T00:44:27.414Z,7.70
2023-05-18T00:46:53.753Z,8.75
2023-05-18T00:49:20.216Z,8.63
2023-05-18T00:51:46.688Z,8.30
2023-05-18T00:54:14.222Z,8.05
2023-05-18T00:56:41.480Z,8.68
2023-05-18T00:59:08.215Z,8.90
2023-05-18T01:01:35.171Z,8.20
2023-05-18T01:04:02.687Z,8.77
2023-05-18T01:06:30.743Z,8.23
2023-05-18T01:08:57.116Z,7.97
2023-05-18T01:11:48.940Z,8.48
2023-05-18T01:14:20.105Z,8.88
2023-05-18T01:16:59.785Z,8.10
2023-05-18T01:20:03.417Z,8.68
2023-05-18T01:22:41.582Z,8.20
2023-05-18T01:25:43.038Z,7.85
2023-05-18T01:28:14.599Z,7.70
2023-05-18T01:30:42.097Z,8.32
2023-05-18T01:33:09.611Z,7.65
2023-05-18T01:35:36.936Z,9.07
2023-05-18T01:38:03.840Z,8.38
2023-05-18T01:40:37.122Z,9.25
2023-05-18T01:43:11.613Z,9.07
2023-05-18T01:45:42.610Z,8.93
2023-05-18T01:48:11.922Z,8.80
2023-05-18T01:50:46.753Z,8.63
2023-05-18T01:53:25.002Z,9.48
2023-05-18T01:55:53.949Z,8.98
2023-05-18T01:58:21.872Z,9.20
2023-05-18T02:00:48.816Z,10.43
2023-05-18T02:03:15.238Z,9.50
2023-05-18T02:05:41.716Z,10.20
2023-05-18T02:08:08.111Z,9.82
2023-05-18T02:10:34.497Z,9.57
2023-05-18T02:13:00.829Z,9.07
2023-05-18T02:15:27.402Z,8.52
2023-05-18T02:17:53.826Z,8.63
2023-05-18T02:20:20.277Z,8.90
2023-05-18T02:22:46.630Z,8.35
2023-05-18T02:25:12.962Z,7.47
2023-05-18T02:27:39.319Z,8.18
2023-05-18T02:30:06.295Z,8.25
2023-05-18T02:32:32.720Z,8.27
2023-05-18T02:34:59.094Z,7.18
2023-05-18T02:37:25.437Z,7.07
2023-05-18T02:39:51.777Z,7.55
2023-05-18T02:42:18.133Z,7.90
2023-05-18T02:44:44.499Z,7.40
2023-05-18T02:47:10.852Z,7.28
2023-05-18T02:49:37.191Z,7.20
2023-05-18T02:52:03.674Z,7.45
2023-05-18T02:54:30.001Z,7.20
2023-05-18T02:56:56.349Z,7.80
2023-05-18T02:59:22.679Z,7.07
2023-05-18T03:01:49.128Z,6.38
2023-05-18T03:04:15.469Z,6.93
2023-05-18T03:06:41.818Z,7.18
2023-05-18T03:09:08.196Z,6.78
2023-05-18T03:11:34.544Z,6.47
2023-05-18T03:14:00.892Z,6.40
2023-05-18T03:16:27.252Z,7.15
2023-05-18T03:18:54.856Z,6.78
2023-05-18T03:21:21.251Z,8.05
2023-05-18T03:23:47.719Z,8.68
2023-05-18T03:26:14.056Z,7.20
2023-05-18T03:28:40.442Z,7.78
2023-05-18T03:31:06.907Z,7.80
2023-05-18T03:33:33.749Z,8.00
2023-05-18T03:36:04.570Z,7.47
2023-05-18T03:38:31.030Z,7.25
2023-05-18T03:40:57.419Z,7.55
2023-05-18T03:43:23.793Z,8.50
2023-05-18T03:45:50.157Z,7.95
2023-05-18T03:48:16.584Z,8.07
2023-05-18T03:50:43.668Z,7.95
2023-05-18T03:53:10.040Z,7.93
2023-05-18T03:55:36.402Z,8.30
2023-05-18T03:58:02.767Z,8.48
2023-05-18T04:00:29.142Z,9.63
2023-05-18T04:02:55.678Z,8.85
2023-05-18T04:05:22.204Z,8.45
2023-05-18T04:07:48.574Z,8.93
2023-05-18T04:10:14.946Z,10.00
2023-05-18T04:12:41.289Z,9.20
2023-05-18T04:15:08.299Z,9.35
2023-05-18T04:17:34.669Z,9.43
2023-05-18T04:20:01.199Z,8.77
2023-05-18T04:22:27.537Z,8.98
2023-05-18T04:24:53.891Z,9.23
2023-05-18T04:27:20.264Z,9.02
2023-05-18T04:29:46.613Z,8.88
2023-05-18T04:32:13.060Z,8.52
2023-05-18T04:34:39.487Z,8.70
2023-05-18T04:37:06.337Z,8.55
2023-05-18T04:39:33.761Z,7.68
2023-05-18T04:42:00.567Z,7.32
2023-05-18T04:44:27.970Z,6.40
2023-05-18T04:46:55.264Z,6.25
2023-05-18T04:49:22.226Z,5.75
2023-05-18T04:51:53.087Z,5.22
2023-05-18T04:54:19.434Z,3.92
2023-05-18T04:56:45.796Z,3.75
2023-05-18T04:59:12.163Z,3.30
2023-05-18T05:01:38.575Z,3.80
2023-05-18T05:04:04.974Z,3.05
2023-05-18T05:06:31.318Z,3.30
2023-05-18T05:08:57.671Z,3.50
2023-05-18T05:11:24.029Z,4.03
2023-05-18T05:13:50.537Z,3.03
2023-05-18T05:16:16.979Z,2.80
2023-05-18T05:18:45.204Z,3.10
2023-05-18T05:21:12.919Z,3.30
2023-05-18T05:23:39.266Z,2.75
2023-05-18T05:26:05.669Z,3.10
2023-05-18T05:28:32.047Z,2.85
2023-05-18T05:30:58.417Z,3.17
2023-05-18T05:33:24.762Z,2.90
2023-05-18T05:35:51.106Z,2.65
2023-05-18T05:38:17.559Z,2.97
2023-05-18T05:40:43.933Z,3.30
2023-05-18T05:43:10.311Z,3.03
2023-05-18T05:45:36.829Z,2.90
2023-05-18T05:48:03.309Z,3.45
2023-05-18T05:50:29.672Z,3.10
2023-05-18T05:52:56.071Z,3.40
2023-05-18T05:55:22.577Z,3.42
2023-05-18T05:57:48.916Z,2.97
2023-05-18T06:00:15.569Z,3.40
2023-05-18T06:02:42.098Z,3.00
2023-05-18T06:05:09.034Z,3.80
2023-05-18T06:07:35.468Z,3.17
2023-05-18T06:10:01.971Z,6.10
2023-05-18T06:12:28.345Z,3.30
2023-05-18T06:14:57.788Z,6.32
2023-05-18T06:17:27.861Z,3.08
2023-05-18T06:19:54.551Z,5.03
2023-05-18T06:22:20.971Z,5.15
2023-05-18T06:24:47.382Z,6.28
2023-05-18T06:27:13.799Z,5.15
2023-05-18T06:29:40.153Z,4.50
2023-05-18T06:32:07.096Z,3.42
2023-05-18T06:34:33.513Z,2.75
2023-05-18T06:36:59.884Z,2.67
2023-05-18T06:39:26.260Z,2.30
2023-05-18T06:41:52.642Z,2.95
2023-05-18T06:44:19.014Z,2.95
2023-05-18T06:46:47.384Z,3.03
2023-05-18T06:49:13.748Z,3.38
2023-05-18T06:51:40.227Z,2.80
2023-05-18T06:54:06.600Z,2.55
2023-05-18T06:56:32.977Z,2.63
2023-05-18T06:59:00.480Z,2.67
2023-05-18T07:01:27.032Z,2.92
2023-05-18T07:03:53.497Z,2.60
2023-05-18T07:06:20.598Z,2.65
2023-05-18T07:08:46.943Z,2.85
2023-05-18T07:11:13.382Z,2.67
2023-05-18T07:13:39.743Z,3.10
2023-05-18T07:16:06.625Z,2.97
2023-05-18T07:18:33.005Z,3.00
2023-05-18T07:20:59.499Z,2.88
2023-05-18T07:23:25.850Z,3.10
2023-05-18T07:25:52.207Z,3.03
2023-05-18T07:28:18.593Z,2.50
2023-05-18T07:30:44.950Z,2.80
2023-05-18T07:33:11.396Z,3.55
2023-05-18T07:35:37.763Z,2.90
2023-05-18T07:38:04.167Z,3.03
2023-05-18T07:40:30.561Z,2.83
2023-05-18T07:42:56.913Z,3.05
2023-05-18T07:45:23.247Z,3.13
2023-05-18T07:47:49.944Z,2.80
2023-05-18T07:50:17.108Z,3.22
2023-05-18T07:52:43.472Z,2.60
2023-05-18T07:55:09.988Z,3.03
2023-05-18T07:57:36.343Z,2.92
2023-05-18T08:00:04.067Z,2.92
2023-05-18T08:02:33.573Z,3.30
2023-05-18T08:05:00.268Z,3.08
2023-05-18T08:07:28.601Z,3.75
2023-05-18T08:09:54.968Z,2.92
2023-05-18T08:12:21.304Z,2.65
2023-05-18T08:14:47.644Z,2.83
2023-05-18T08:17:14.039Z,3.40
2023-05-18T08:19:41.951Z,3.55
2023-05-18T08:22:08.491Z,3.30
2023-05-18T08:24:34.862Z,2.92
2023-05-18T08:27:01.203Z,3.13
2023-05-18T08:29:27.548Z,3.13
2023-05-18T08:31:53.993Z,2.92
2023-05-18T08:34:20.413Z,3.03
2023-05-18T08:36:46.745Z,2.80
2023-05-18T08:39:13.169Z,2.95
2023-05-18T08:41:53.568Z,3.33
2023-05-18T08:44:26.496Z,3.55
2023-05-18T08:46:55.212Z,3.17
2023-05-18T08:49:21.956Z,3.40
2023-05-18T08:51:55.166Z,3.92
2023-05-18T08:54:22.821Z,3.28
2023-05-18T08:56:49.868Z,3.10
2023-05-18T08:59:22.891Z,3.10
2023-05-18T09:01:49.404Z,3.50
2023-05-18T09:04:16.335Z,3.72
2023-05-18T09:06:43.115Z,3.42
2023-05-18T09:09:09.887Z,3.72
2023-05-18T09:11:38.032Z,3.15
2023-05-18T09:14:04.428Z,3.00
2023-05-18T09:16:31.442Z,3.35
2023-05-18T09:18:57.885Z,3.95
2023-05-18T09:21:24.245Z,3.60
2023-05-18T09:23:50.894Z,3.97
2023-05-18T09:26:18.905Z,4.03
2023-05-18T09:28:45.458Z,3.10
2023-05-18T09:31:17.377Z,3.45
2023-05-18T09:33:46.164Z,3.85
2023-05-18T09:36:13.454Z,3.40
2023-05-18T09:38:41.723Z,3.63
2023-05-18T09:41:16.580Z,3.53
2023-05-18T09:46:11.760Z,3.65
2023-05-18T09:48:42.765Z,3.90
2023-05-18T09:51:11.435Z,3.83
2023-05-18T09:53:37.802Z,3.85
2023-05-18T09:56:07.808Z,4.03
2023-05-18T09:58:34.429Z,4.10
2023-05-18T10:01:02.305Z,3.65
2023-05-18T10:03:34.026Z,3.72
2023-05-18T10:06:05.557Z,3.53
2023-05-18T10:08:32.925Z,3.50
2023-05-18T10:10:59.407Z,4.50
2023-05-18T10:13:28.257Z,3.70
2023-05-18T10:15:56.477Z,4.00
2023-05-18T10:18:25.079Z,3.80
2023-05-18T10:20:53.223Z,3.70
2023-05-18T10:23:20.676Z,5.40
2023-05-18T10:25:49.333Z,3.38
2023-05-18T10:28:31.018Z,4.25
2023-05-18T10:30:59.967Z,4.65
2023-05-18T10:33:30.691Z,3.78
2023-05-18T10:35:58.189Z,3.85
2023-05-18T10:38:28.505Z,4.05
2023-05-18T10:40:57.034Z,3.78
2023-05-18T10:43:25.034Z,3.58
2023-05-18T10:45:55.537Z,3.40
2023-05-18T10:48:23.501Z,3.85
2023-05-18T10:50:51.991Z,3.38
2023-05-18T10:53:20.206Z,3.50
2023-05-18T10:55:51.145Z,3.45
2023-05-18T10:58:22.652Z,3.55
2023-05-18T11:00:57.770Z,3.10
2023-05-18T11:03:25.489Z,4.25
2023-05-18T11:06:07.257Z,3.95
2023-05-18T11:08:34.087Z,4.15
2023-05-18T11:11:06.280Z,3.42
2023-05-18T11:13:34.124Z,3.80
2023-05-18T11:16:00.474Z,3.95
2023-05-18T11:18:37.795Z,3.78
2023-05-18T11:21:04.504Z,4.13
2023-05-18T11:23:32.284Z,3.90
2023-05-18T11:26:02.119Z,3.63
2023-05-18T11:28:29.049Z,4.68
2023-05-18T11:30:55.410Z,2.97
2023-05-18T11:33:29.357Z,3.45
2023-05-18T11:36:06.097Z,3.60
2023-05-18T11:39:11.199Z,3.53
2023-05-18T11:41:41.158Z,3.40
2023-05-18T11:44:13.349Z,3.78
2023-05-18T11:47:02.159Z,3.75
2023-05-18T11:49:32.230Z,3.28
2023-05-18T11:52:16.047Z,3.28
2023-05-18T11:54:46.196Z,3.65
2023-05-18T11:57:15.339Z,3.58
2023-05-18T11:59:47.555Z,3.90
2023-05-18T12:02:20.299Z,3.50
2023-05-18T12:04:48.757Z,3.58
2023-05-18T12:07:15.444Z,3.95
2023-05-18T12:09:42.740Z,3.05
2023-05-18T12:12:10.505Z,3.40
2023-05-18T12:14:39.034Z,3.90
2023-05-18T12:17:06.541Z,3.63
2023-05-18T12:19:46.556Z,2.92
2023-05-18T12:22:13.285Z,3.17
2023-05-18T12:24:41.119Z,2.58
2023-05-18T12:27:09.199Z,3.38
2023-05-18T12:29:40.367Z,2.92
2023-05-18T12:32:08.911Z,3.58
2023-05-18T12:34:35.580Z,3.67
2023-05-18T12:37:02.375Z,3.45
2023-05-18T12:39:29.044Z,3.47
2023-05-18T12:42:08.874Z,3.35
2023-05-18T12:44:35.292Z,3.08
2023-05-18T12:47:02.074Z,3.67
2023-05-18T12:49:28.464Z,3.50
2023-05-18T12:51:55.876Z,3.78
2023-05-18T12:54:29.202Z,3.30
2023-05-18T12:56:56.364Z,4.35
2023-05-18T12:59:22.718Z,3.33
2023-05-18T13:01:49.416Z,3.03
2023-05-18T13:04:16.044Z,3.38
2023-05-18T13:06:43.193Z,4.18
2023-05-18T13:09:13.209Z,3.28
2023-05-18T13:11:40.142Z,3.40
2023-05-18T13:14:09.422Z,2.80
2023-05-18T13:16:39.739Z,2.90
2023-05-18T13:19:07.537Z,4.05
2023-05-18T13:21:34.912Z,3.10
2023-05-18T13:24:02.522Z,2.70
2023-05-18T13:26:29.055Z,2.75
2023-05-18T13:28:57.070Z,3.35
2023-05-18T13:31:23.965Z,3.40
2023-05-18T13:33:50.735Z,3.20
2023-05-18T13:36:18.305Z,3.45
2023-05-18T13:38:45.063Z,3.15
2023-05-18T13:41:11.817Z,3.65
2023-05-18T13:43:38.246Z,3.40
2023-05-18T13:46:04.705Z,2.70
2023-05-18T13:48:31.090Z,2.75
2023-05-18T13:50:57.520Z,3.65
2023-05-18T13:53:23.957Z,3.30
2023-05-18T13:55:50.340Z,4.00
2023-05-18T13:58:16.690Z,3.42
2023-05-18T14:00:43.031Z,3.33
2023-05-18T14:03:09.456Z,3.38
2023-05-18T14:05:36.267Z,3.10
2023-05-18T14:08:02.964Z,3.15
2023-05-18T14:10:29.584Z,2.90
2023-05-18T14:12:56.073Z,3.78
2023-05-18T14:15:22.537Z,3.65
2023-05-18T14:17:48.976Z,3.08
2023-05-18T14:20:15.444Z,3.38
2023-05-18T14:22:42.101Z,3.40
2023-05-18T14:25:08.897Z,3.55
2023-05-18T14:27:35.249Z,3.20
2023-05-18T14:30:01.608Z,3.22
2023-05-18T14:32:28.096Z,3.13
2023-05-18T14:34:54.470Z,3.22
2023-05-18T14:37:21.180Z,2.60
2023-05-18T14:39:47.559Z,3.42
2023-05-18T14:42:14.011Z,2.80
2023-05-18T14:44:40.365Z,3.28
2023-05-18T14:47:06.914Z,2.90
2023-05-18T14:49:33.424Z,3.30
2023-05-18T14:51:59.811Z,2.85
2023-05-18T14:54:26.146Z,2.90
2023-05-18T14:56:52.510Z,2.95
2023-05-18T14:59:18.858Z,3.13
2023-05-18T15:01:45.214Z,3.10
2023-05-18T15:04:11.689Z,2.90
2023-05-18T15:06:38.214Z,3.85
2023-05-18T15:09:04.561Z,3.08
2023-05-18T15:11:30.930Z,3.10
2023-05-18T15:13:57.281Z,3.22
2023-05-18T15:16:23.718Z,3.17
2023-05-18T15:18:50.126Z,3.60
2023-05-18T15:21:16.486Z,3.15
2023-05-18T15:23:42.829Z,3.28
2023-05-18T15:26:09.452Z,3.10
2023-05-18T15:28:36.070Z,3.35
2023-05-18T15:31:02.474Z,3.50
2023-05-18T15:33:30.047Z,2.42
2023-05-18T15:35:56.438Z,2.72
2023-05-18T15:38:22.816Z,6.25
2023-05-18T15:40:49.787Z,5.00
2023-05-18T15:43:16.119Z,4.22
2023-05-18T15:45:42.524Z,3.05
2023-05-18T15:48:08.902Z,3.42
2023-05-18T15:50:35.296Z,3.28
2023-05-18T15:53:01.641Z,7.28
2023-05-18T15:55:28.084Z,3.08
2023-05-18T15:57:54.496Z,2.92
2023-05-18T16:00:20.854Z,3.45
2023-05-18T16:02:47.241Z,3.15
2023-05-18T16:05:13.631Z,3.00
2023-05-18T16:07:39.983Z,2.88
2023-05-18T16:10:07.220Z,2.80
2023-05-18T16:12:33.571Z,2.83
2023-05-18T16:14:59.933Z,2.75
2023-05-18T16:17:26.357Z,2.83
2023-05-18T16:19:52.751Z,2.55
2023-05-18T16:22:19.111Z,2.72
2023-05-18T16:24:45.454Z,2.70
2023-05-18T16:27:11.795Z,2.65
2023-05-18T16:29:38.153Z,3.20
2023-05-18T16:32:04.789Z,2.78
2023-05-18T16:34:31.133Z,2.83
2023-05-18T16:36:57.481Z,2.97
2023-05-18T16:39:24.883Z,2.90
2023-05-18T16:41:52.916Z,3.13
2023-05-18T16:44:19.259Z,3.25
2023-05-18T16:46:45.699Z,2.65
2023-05-18T16:49:12.099Z,2.95
2023-05-18T16:51:38.512Z,3.00
2023-05-18T16:54:04.868Z,3.10
2023-05-18T16:56:31.240Z,2.63
2023-05-18T16:58:57.630Z,2.70
2023-05-18T17:01:28.801Z,2.80
2023-05-18T17:03:55.720Z,2.63
2023-05-18T17:06:34.720Z,2.90
2023-05-18T17:09:01.077Z,3.28
2023-05-18T17:11:27.494Z,2.83
2023-05-18T17:13:53.920Z,2.97
2023-05-18T17:16:20.797Z,2.63
2023-05-18T17:18:47.619Z,3.30
2023-05-18T17:21:14.022Z,4.25
2023-05-18T17:23:40.420Z,3.35
2023-05-18T17:26:07.009Z,4.07
2023-05-18T17:28:33.518Z,3.30
2023-05-18T17:30:59.900Z,3.83
2023-05-18T17:33:26.246Z,4.30
2023-05-18T17:35:52.714Z,3.42
2023-05-18T17:38:19.059Z,3.83
2023-05-18T17:40:45.414Z,2.88
2023-05-18T17:43:11.771Z,2.28
2023-05-18T17:45:38.142Z,3.22
2023-05-18T17:48:04.953Z,3.75
2023-05-18T17:50:31.546Z,3.03
2023-05-18T17:52:58.092Z,3.13
2023-05-18T17:55:24.467Z,3.00
2023-05-18T17:57:51.161Z,3.53
2023-05-18T18:00:17.808Z,2.95
2023-05-18T18:02:44.248Z,3.42
2023-05-18T18:05:10.635Z,2.60
2023-05-18T18:07:37.008Z,2.97
2023-05-18T18:10:03.554Z,2.58
2023-05-18T18:12:30.087Z,2.83
2023-05-18T18:14:56.433Z,2.88
2023-05-18T18:17:22.805Z,2.58
2023-05-18T18:19:49.206Z,2.70
2023-05-18T18:22:15.550Z,3.10
2023-05-18T18:24:41.900Z,3.05
2023-05-18T18:27:08.261Z,2.35
2023-05-18T18:29:34.659Z,2.60
2023-05-18T18:32:01.049Z,3.10
2023-05-18T18:34:27.382Z,3.28
2023-05-18T18:36:53.782Z,2.65
2023-05-18T18:39:20.277Z,2.60
2023-05-18T18:41:46.659Z,3.03
2023-05-18T18:44:12.996Z,2.55
2023-05-18T18:46:39.538Z,2.83
2023-05-18T18:49:05.929Z,2.75
2023-05-18T18:51:32.346Z,2.45
2023-05-18T18:53:58.720Z,2.53
2023-05-18T18:56:25.180Z,2.90
2023-05-18T18:58:51.529Z,2.85
2023-05-18T19:01:18.068Z,2.67
2023-05-18T19:03:44.466Z,2.80
2023-05-18T19:06:10.913Z,3.00
2023-05-18T19:08:37.287Z,3.00
2023-05-18T19:11:03.650Z,2.63
2023-05-18T19:13:30.009Z,3.10
2023-05-18T19:15:56.431Z,2.80
2023-05-18T19:18:22.809Z,2.70
2023-05-18T19:20:49.281Z,2.20
2023-05-18T19:23:15.640Z,2.58
2023-05-18T19:25:42.114Z,3.00
2023-05-18T19:28:08.665Z,2.88
2023-05-18T19:30:35.022Z,2.53
2023-05-18T19:33:01.514Z,3.58
2023-05-18T19:35:28.065Z,2.60
2023-05-18T19:37:54.418Z,3.20
2023-05-18T19:40:20.767Z,2.78
2023-05-18T19:42:47.118Z,3.05
2023-05-18T19:45:13.599Z,2.75
2023-05-18T19:47:39.952Z,2.80
2023-05-18T19:50:06.944Z,3.10
2023-05-18T19:52:33.328Z,3.72
2023-05-18T19:54:59.763Z,3.20
2023-05-18T19:57:26.211Z,3.17
2023-05-18T19:59:53.069Z,3.47
2023-05-18T20:02:19.407Z,3.25
2023-05-18T20:04:45.760Z,3.13
2023-05-18T20:07:12.104Z,3.55
2023-05-18T20:09:38.641Z,3.15
2023-05-18T20:12:05.189Z,3.63
2023-05-18T20:14:31.587Z,4.15
2023-05-18T20:16:58.569Z,3.80
2023-05-18T20:19:25.449Z,3.72
2023-05-18T20:21:51.853Z,3.20
2023-05-18T20:24:18.208Z,3.15
2023-05-18T20:26:44.560Z,3.63
2023-05-18T20:29:10.922Z,3.60
2023-05-18T20:31:37.354Z,3.40
2023-05-18T20:34:03.813Z,4.10
2023-05-18T20:36:30.188Z,3.75
2023-05-18T20:38:56.565Z,2.97
2023-05-18T20:41:22.912Z,3.33
2023-05-18T20:43:49.286Z,3.55
2023-05-18T20:46:15.729Z,3.63
2023-05-18T20:48:42.955Z,2.97
2023-05-18T20:51:09.318Z,3.30
2023-05-18T20:53:35.668Z,3.08
2023-05-18T20:56:02.074Z,3.03
2023-05-18T20:58:28.446Z,3.58
2023-05-18T21:00:54.790Z,3.17
2023-05-18T21:03:21.530Z,3.38
2023-05-18T21:05:48.841Z,3.33
2023-05-18T21:08:15.665Z,3.60
2023-05-18T21:10:42.059Z,3.75
2023-05-18T21:13:08.398Z,3.80
2023-05-18T21:15:34.783Z,4.03
2023-05-18T21:18:01.189Z,3.47
2023-05-18T21:20:27.756Z,3.45
2023-05-18T21:22:54.115Z,3.97
2023-05-18T21:25:20.496Z,4.70
2023-05-18T21:27:46.838Z,4.35
2023-05-18T21:30:13.851Z,3.90
2023-05-18T21:32:40.298Z,4.28
2023-05-18T21:35:06.966Z,3.47
2023-05-18T21:37:33.360Z,3.50
2023-05-18T21:39:59.731Z,3.83
2023-05-18T21:42:26.069Z,3.55
2023-05-18T21:44:53.433Z,3.33
2023-05-18T21:47:19.852Z,3.00
2023-05-18T21:49:46.211Z,4.00
2023-05-18T21:52:12.570Z,3.92
2023-05-18T21:54:38.918Z,4.47
2023-05-18T21:57:05.526Z,4.40
2023-05-18T21:59:31.933Z,4.15
2023-05-18T22:01:58.372Z,4.07
2023-05-18T22:04:24.790Z,3.80
2023-05-18T22:06:53.932Z,3.75
2023-05-18T22:09:20.300Z,4.10
2023-05-18T22:11:46.681Z,4.45
2023-05-18T22:14:13.334Z,4.20
2023-05-18T22:16:40.401Z,4.60
2023-05-18T22:19:06.766Z,4.78
2023-05-18T22:21:33.236Z,4.45
2023-05-18T22:23:59.610Z,4.10
2023-05-18T22:26:25.993Z,3.90
2023-05-18T22:28:52.401Z,4.70
2023-05-18T22:31:18.756Z,4.03
2023-05-18T22:33:45.094Z,4.43
2023-05-18T22:36:11.491Z,4.03
2023-05-18T22:38:37.863Z,4.18
2023-05-18T22:41:04.192Z,3.90
2023-05-18T22:43:30.549Z,3.65
2023-05-18T22:45:56.974Z,3.90
2023-05-18T22:48:23.423Z,3.38
2023-05-18T22:50:49.787Z,4.25
2023-05-18T22:53:16.236Z,3.58
2023-05-18T22:55:42.696Z,3.80
2023-05-18T22:58:09.104Z,3.92
2023-05-18T23:00:35.487Z,3.22
2023-05-18T23:03:01.882Z,3.25
2023-05-18T23:05:28.354Z,3.55
2023-05-18T23:07:54.807Z,3.65
2023-05-18T23:10:21.160Z,3.50
2023-05-18T23:12:47.513Z,3.88
2023-05-18T23:15:13.852Z,4.00
2023-05-18T23:17:40.224Z,4.13
2023-05-18T23:20:07.223Z,4.72
2023-05-18T23:22:34.724Z,4.20
2023-05-18T23:25:01.739Z,4.15
2023-05-18T23:27:28.104Z,4.57
2023-05-18T23:29:54.465Z,4.28
2023-05-18T23:32:21.068Z,4.75
2023-05-18T23:34:47.731Z,4.25
2023-05-18T23:37:16.427Z,4.40
2023-05-18T23:39:45.652Z,5.43
2023-05-18T23:42:12.431Z,4.13
2023-05-18T23:44:39.145Z,4.93
2023-05-18T23:47:05.768Z,4.50
2023-05-18T23:49:32.522Z,5.13
2023-05-18T23:52:01.595Z,5.35
2023-05-18T23:54:28.396Z,5.32
2023-05-18T23:56:55.033Z,5.15
2023-05-18T23:59:21.971Z,5.22
